Time;durP1;ratioP1;P1;durP2;ratioP2;P2;SDS_P1;SDS_P2;PMS_P1;PMS_P2;Temp;Humidity;BMP_temperature;BMP_pressure;BME280_temperature;BME280_humidity;BME280_pressure;Samples;Min_cycle;Max_cycle;Signal;HPM_P1;HPM_P2
2024/01/06 00:01:53;;;;;;;;;;;;;;;4.64;100.00;95037.81;5135056;27;968;-65
2024/01/06 00:04:18;;;;;;;;;;;;;;;4.63;100.00;95038.78;5134652;27;2009;-64
2024/01/06 00:06:44;;;;;;;;;;;;;;;4.68;100.00;95041.88;5134605;27;932;-64
2024/01/06 00:09:10;;;;;;;;;;;;;;;4.77;100.00;95037.63;5134800;27;969;-65
2024/01/06 00:11:36;;;;;;;;;;;;;;;4.73;100.00;95046.81;5134554;27;1239;-65
2024/01/06 00:14:02;;;;;;;;;;;;;;;4.78;100.00;95034.88;5134572;27;940;-65
2024/01/06 00:16:28;;;;;;;;;;;;;;;4.84;100.00;95033.53;5134440;27;1035;-64
2024/01/06 00:18:54;;;;;;;;;;;;;;;4.69;100.00;95033.81;5134510;27;1063;-65
2024/01/06 00:21:20;;;;;;;;;;;;;;;4.60;100.00;95001.97;5134821;27;1023;-65
2024/01/06 00:23:46;;;;;;;;;;;;;;;4.85;100.00;95040.47;5134434;27;1968;-64
2024/01/06 00:26:12;;;;;;;;;;;;;;;4.83;100.00;95039.75;5134701;27;1043;-65
2024/01/06 00:28:41;;;;;;;;;;;;;;;4.66;100.00;95038.53;5134206;27;1036;-65
2024/01/06 00:31:07;;;;;;;;;;;;;;;4.75;100.00;95045.72;5134628;27;991;-64
2024/01/06 00:33:33;;;;;;;;;;;;;;;4.69;100.00;95043.59;5134296;27;923;-64
2024/01/06 00:35:59;;;;;;;;;;;;;;;4.71;100.00;95049.59;5134446;27;1000;-64
2024/01/06 00:38:25;;;;;;;;;;;;;;;4.63;100.00;95047.56;5134223;27;1248;-64
2024/01/06 00:40:51;;;;;;;;;;;;;;;4.64;100.00;95053.72;5134443;27;1014;-65
2024/01/06 00:43:17;;;;;;;;;;;;;;;4.58;100.00;95046.28;5133838;27;1988;-65
2024/01/06 00:45:43;;;;;;;;;;;;;;;4.59;100.00;95048.81;5134449;28;957;-64
2024/01/06 00:48:09;;;;;;;;;;;;;;;4.68;100.00;95055.97;5134483;28;968;-65
2024/01/06 00:50:35;;;;;;;;;;;;;;;4.85;100.00;95049.25;5134082;28;1028;-64
2024/01/06 00:53:01;;;;;;;;;;;;;;;4.89;100.00;95056.00;5133978;28;1155;-65
2024/01/06 00:55:27;;;;;;;;;;;;;;;4.76;100.00;95054.47;5134095;28;1020;-65
2024/01/06 00:57:53;;;;;;;;;;;;;;;4.69;100.00;95048.88;5134059;28;1023;-65
2024/01/06 01:00:19;;;;;;;;;;;;;;;4.72;100.00;95038.00;5133939;28;1040;-65
2024/01/06 01:02:45;;;;;;;;;;;;;;;4.89;100.00;95033.94;5133876;28;1991;-65
2024/01/06 01:05:11;;;;;;;;;;;;;;;4.85;100.00;95040.47;5134215;28;981;-64
2024/01/06 01:07:37;;;;;;;;;;;;;;;4.81;100.00;95039.88;5134022;28;988;-65
2024/01/06 01:10:03;;;;;;;;;;;;;;;4.93;100.00;95032.72;5134193;28;1043;-64
2024/01/06 01:12:29;;;;;;;;;;;;;;;4.98;100.00;95038.47;5134135;28;1035;-64
2024/01/06 01:14:55;;;;;;;;;;;;;;;4.97;100.00;95028.84;5134146;28;1068;-64
2024/01/06 01:17:21;;;;;;;;;;;;;;;4.78;100.00;95034.00;5134050;28;1019;-64
2024/01/06 01:19:47;;;;;;;;;;;;;;;4.81;100.00;95028.47;5115850;28;1187;-64
2024/01/06 01:22:12;;;;;;;;;;;;;;;4.79;100.00;95017.16;5134112;28;1064;-65
2024/01/06 01:24:38;;;;;;;;;;;;;;;4.91;100.00;95024.06;5115511;28;1901;-64
2024/01/06 01:27:05;;;;;;;;;;;;;;;4.84;100.00;95010.50;5134070;28;1062;-65
2024/01/06 01:29:31;;;;;;;;;;;;;;;4.77;100.00;95006.69;5133563;28;1036;-64
2024/01/06 01:31:57;;;;;;;;;;;;;;;4.81;100.00;95009.91;5133928;28;977;-64
2024/01/06 01:34:22;;;;;;;;;;;;;;;4.76;100.00;95020.91;5133994;28;965;-65
2024/01/06 01:36:48;;;;;;;;;;;;;;;4.79;100.00;95002.09;5133759;28;1033;-65
2024/01/06 01:39:15;;;;;;;;;;;;;;;4.77;100.00;95005.84;5133771;28;987;-65
2024/01/06 01:41:41;;;;;;;;;;;;;;;4.78;100.00;94996.91;5115431;28;1022;-65
2024/01/06 01:44:07;;;;;;;;;;;;;;;4.82;100.00;94998.38;5133361;28;1909;-64
2024/01/06 01:46:33;;;;;;;;;;;;;;;4.93;100.00;94984.19;5133837;28;1052;-64
2024/01/06 01:49:00;;;;;;;;;;;;;;;4.98;100.00;94987.31;5133935;28;972;-65
2024/01/06 01:51:28;;;;;;;;;;;;;;;4.92;100.00;94987.81;5118076;27;1001;-64
2024/01/06 01:53:55;;;;;;;;;;;;;;;4.81;100.00;94970.19;5137332;27;1210;-64
2024/01/06 01:56:21;;;;;;;;;;;;;;;4.75;100.00;94978.66;5137603;27;1010;-64
2024/01/06 01:58:47;;;;;;;;;;;;;;;4.78;100.00;94975.72;5137045;27;981;-65
2024/01/06 02:01:14;;;;;;;;;;;;;;;4.83;100.00;94969.06;5137498;27;968;-64
2024/01/06 02:03:41;;;;;;;;;;;;;;;4.95;100.00;94976.94;5137232;27;1988;-65
2024/01/06 02:06:07;;;;;;;;;;;;;;;4.80;100.00;94973.78;5137352;27;1035;-64
2024/01/06 02:08:33;;;;;;;;;;;;;;;4.65;100.00;94966.19;5137080;27;1040;-64
2024/01/06 02:10:59;;;;;;;;;;;;;;;4.63;100.00;94964.63;5137020;27;1025;-65
2024/01/06 02:13:32;;;;;;;;;;;;;;;4.60;100.00;94962.25;5118719;27;1024;-65
2024/01/06 02:15:58;;;;;;;;;;;;;;;4.39;100.00;94975.47;5137200;27;961;-64
2024/01/06 02:18:24;;;;;;;;;;;;;;;4.23;100.00;94976.75;5137057;27;1051;-65
2024/01/06 02:20:52;;;;;;;;;;;;;;;4.29;100.00;94976.25;5137014;27;1063;-64
2024/01/06 02:23:18;;;;;;;;;;;;;;;4.37;100.00;94967.66;5136713;27;1986;-65
2024/01/06 02:25:44;;;;;;;;;;;;;;;4.22;100.00;94967.13;5136564;27;1060;-64
2024/01/06 02:28:10;;;;;;;;;;;;;;;4.25;100.00;94966.88;5136558;27;1100;-65
2024/01/06 02:30:36;;;;;;;;;;;;;;;4.29;100.00;94956.88;5136567;27;1040;-63
2024/01/06 02:33:02;;;;;;;;;;;;;;;4.40;100.00;94953.31;5136497;27;1107;-64
2024/01/06 02:35:28;;;;;;;;;;;;;;;4.46;100.00;94950.19;5136732;27;968;-64
2024/01/06 02:37:54;;;;;;;;;;;;;;;4.38;100.00;94945.53;5136561;27;1044;-63
2024/01/06 02:40:20;;;;;;;;;;;;;;;4.33;100.00;94936.28;5136329;27;1107;-65
2024/01/06 02:42:46;;;;;;;;;;;;;;;4.32;100.00;94927.50;5136071;27;1957;-65
2024/01/06 02:45:12;;;;;;;;;;;;;;;4.18;100.00;94936.59;5136320;27;1078;-63
2024/01/06 02:47:38;;;;;;;;;;;;;;;4.27;100.00;94924.41;5136529;27;1011;-64
2024/01/06 02:50:04;;;;;;;;;;;;;;;4.25;100.00;94921.03;5136516;27;965;-65
2024/01/06 02:52:30;;;;;;;;;;;;;;;4.24;100.00;94919.38;5136088;27;1212;-64
2024/01/06 02:54:56;;;;;;;;;;;;;;;4.28;100.00;94923.44;5136091;27;1095;-65
2024/01/06 02:57:22;;;;;;;;;;;;;;;4.24;100.00;94925.50;5136336;27;1052;-65
2024/01/06 02:59:48;;;;;;;;;;;;;;;4.27;100.00;94925.25;5136011;27;1102;-64
2024/01/06 03:02:14;;;;;;;;;;;;;;;4.09;100.00;94932.88;5135932;27;1032;-64
2024/01/06 03:04:40;;;;;;;;;;;;;;;4.06;100.00;94927.88;5135769;27;2021;-65
2024/01/06 03:07:06;;;;;;;;;;;;;;;3.99;100.00;94934.63;5136059;27;1048;-64
2024/01/06 03:09:32;;;;;;;;;;;;;;;3.90;100.00;94938.84;5135817;27;973;-65
2024/01/06 03:11:58;;;;;;;;;;;;;;;3.85;100.00;94937.56;5135740;27;860;-65
2024/01/06 03:14:24;;;;;;;;;;;;;;;3.86;100.00;94945.38;5135931;27;1075;-64
2024/01/06 03:16:50;;;;;;;;;;;;;;;3.86;100.00;94940.06;5135780;27;1045;-64
2024/01/06 03:19:16;;;;;;;;;;;;;;;4.00;100.00;94931.00;5135652;27;1099;-64
2024/01/06 03:21:42;;;;;;;;;;;;;;;4.09;100.00;94927.59;5135537;27;1047;-65
2024/01/06 03:24:09;;;;;;;;;;;;;;;4.20;100.00;94931.19;5135493;27;1906;-64
2024/01/06 03:26:35;;;;;;;;;;;;;;;4.24;100.00;94928.13;5117380;27;1043;-64
2024/01/06 03:29:02;;;;;;;;;;;;;;;4.31;100.00;94939.06;5117438;27;1028;-65
2024/01/06 03:31:29;;;;;;;;;;;;;;;4.34;100.00;94940.59;5135632;27;969;-65
2024/01/06 03:33:55;;;;;;;;;;;;;;;4.18;100.00;94933.94;5135347;27;1105;-64
2024/01/06 03:36:21;;;;;;;;;;;;;;;4.03;100.00;94924.63;5135296;27;1044;-64
2024/01/06 03:38:47;;;;;;;;;;;;;;;3.91;100.00;94907.97;5135442;27;973;-64
2024/01/06 03:41:13;;;;;;;;;;;;;;;4.05;100.00;94915.59;5135159;27;1052;-65
2024/01/06 03:43:39;;;;;;;;;;;;;;;4.01;100.00;94918.63;5134865;27;1909;-64
2024/01/06 03:46:05;;;;;;;;;;;;;;;3.89;100.00;94909.91;5135179;27;1036;-64
2024/01/06 03:48:31;;;;;;;;;;;;;;;3.81;100.00;94907.03;5135031;27;1020;-63
2024/01/06 03:50:59;;;;;;;;;;;;;;;3.68;100.00;94908.06;5135038;27;1036;-63
2024/01/06 03:53:25;;;;;;;;;;;;;;;3.65;100.00;94896.88;5135188;27;1213;-65
2024/01/06 03:55:51;;;;;;;;;;;;;;;3.74;100.00;94898.78;5134844;27;1014;-65
2024/01/06 03:58:17;;;;;;;;;;;;;;;3.78;100.00;94891.44;5135157;27;1034;-64
2024/01/06 04:00:43;;;;;;;;;;;;;;;3.84;100.00;94880.34;5135117;27;1058;-64
2024/01/06 04:03:09;;;;;;;;;;;;;;;3.90;100.00;94893.88;5135064;27;1910;-65
2024/01/06 04:05:35;;;;;;;;;;;;;;;3.98;100.00;94898.53;5134752;27;1007;-64
2024/01/06 04:08:02;;;;;;;;;;;;;;;3.85;100.00;94893.44;5134695;27;991;-64
2024/01/06 04:10:28;;;;;;;;;;;;;;;3.48;100.00;94885.03;5134830;27;994;-65
2024/01/06 04:12:54;;;;;;;;;;;;;;;3.69;100.00;94896.50;5134197;27;980;-68
2024/01/06 04:15:19;;;;;;;;;;;;;;;3.69;100.00;94893.84;5135008;27;1074;-65
2024/01/06 04:17:48;;;;;;;;;;;;;;;3.79;100.00;94899.22;5134685;27;1052;-67
2024/01/06 04:20:14;;;;;;;;;;;;;;;3.80;100.00;94900.91;5134588;27;1071;-66
2024/01/06 04:22:40;;;;;;;;;;;;;;;3.75;100.00;94896.97;5134375;27;1988;-67
2024/01/06 04:25:06;;;;;;;;;;;;;;;3.92;100.00;94899.88;5134379;27;1105;-66
2024/01/06 04:27:34;;;;;;;;;;;;;;;3.98;100.00;94903.84;5134332;27;1028;-65
2024/01/06 04:29:59;;;;;;;;;;;;;;;3.80;100.00;94905.38;5134406;27;1051;-67
2024/01/06 04:32:25;;;;;;;;;;;;;;;3.84;100.00;94909.44;5134364;27;1031;-63
2024/01/06 04:34:52;;;;;;;;;;;;;;;3.70;100.00;94898.19;5134292;27;965;-64
2024/01/06 04:37:18;;;;;;;;;;;;;;;3.77;100.00;94910.91;5134892;27;1037;-64
2024/01/06 04:39:44;;;;;;;;;;;;;;;3.83;100.00;94911.25;5134081;27;1092;-65
2024/01/06 04:42:10;;;;;;;;;;;;;;;3.84;100.00;94907.63;5134045;27;1075;-65
2024/01/06 04:44:36;;;;;;;;;;;;;;;3.79;100.00;94887.81;5134288;28;1909;-64
2024/01/06 04:47:02;;;;;;;;;;;;;;;3.85;100.00;94909.31;5134493;28;1228;-64
2024/01/06 04:49:28;;;;;;;;;;;;;;;3.91;100.00;94897.41;5134060;28;1035;-63
2024/01/06 04:51:54;;;;;;;;;;;;;;;3.88;100.00;94901.13;5133941;28;1161;-64
2024/01/06 04:54:20;;;;;;;;;;;;;;;3.89;100.00;94904.63;5134246;28;1044;-65
2024/01/06 04:56:46;;;;;;;;;;;;;;;3.77;100.00;94898.50;5134297;28;1056;-66
2024/01/06 04:59:12;;;;;;;;;;;;;;;3.62;100.00;94900.59;5134310;28;988;-66
2024/01/06 05:01:38;;;;;;;;;;;;;;;3.79;100.00;94888.66;5134174;28;963;-66
2024/01/06 05:04:04;;;;;;;;;;;;;;;3.79;100.00;94893.09;5133989;28;1905;-65
2024/01/06 05:06:29;;;;;;;;;;;;;;;3.89;100.00;94886.09;5134188;28;1031;-66
2024/01/06 05:08:55;;;;;;;;;;;;;;;4.00;100.00;94878.09;5133754;28;1308;-65
2024/01/06 05:11:22;;;;;;;;;;;;;;;3.92;100.00;94872.59;5133838;28;1024;-67
2024/01/06 05:13:47;;;;;;;;;;;;;;;3.77;100.00;94880.00;5134215;28;1063;-66
2024/01/06 05:16:13;;;;;;;;;;;;;;;3.76;100.00;94888.09;5133788;28;1102;-67
2024/01/06 05:18:39;;;;;;;;;;;;;;;3.73;100.00;94886.50;5134016;28;965;-66
2024/01/06 05:21:05;;;;;;;;;;;;;;;3.52;100.00;94889.94;5133901;28;1032;-64
2024/01/06 05:23:31;;;;;;;;;;;;;;;3.46;100.00;94890.44;5133748;28;1994;-67
2024/01/06 05:25:57;;;;;;;;;;;;;;;3.64;100.00;94884.63;5135851;27;1039;-65
2024/01/06 05:28:23;;;;;;;;;;;;;;;3.72;100.00;94877.75;5137709;27;1114;-64
2024/01/06 05:30:49;;;;;;;;;;;;;;;3.74;100.00;94876.75;5137969;27;985;-66
2024/01/06 05:33:15;;;;;;;;;;;;;;;3.59;100.00;94874.44;5137754;27;1028;-66
2024/01/06 05:35:41;;;;;;;;;;;;;;;3.60;100.00;94870.81;5119389;27;1040;-67
2024/01/06 05:38:07;;;;;;;;;;;;;;;3.64;100.00;94866.97;5137867;27;1279;-67
2024/01/06 05:40:33;;;;;;;;;;;;;;;3.55;100.00;94864.22;5137460;27;1103;-66
2024/01/06 05:42:59;;;;;;;;;;;;;;;3.37;100.00;94870.03;5137235;27;1930;-66
2024/01/06 05:45:25;;;;;;;;;;;;;;;3.33;100.00;94864.16;5137417;27;1031;-65
2024/01/06 05:47:51;;;;;;;;;;;;;;;3.25;100.00;94868.41;5137731;27;1034;-66
2024/01/06 05:50:18;;;;;;;;;;;;;;;3.06;100.00;94872.50;5137622;27;1014;-67
2024/01/06 05:52:44;;;;;;;;;;;;;;;3.06;100.00;94874.31;5137507;27;1145;-66
2024/01/06 05:55:10;;;;;;;;;;;;;;;3.37;100.00;94874.50;5137507;27;996;-65
2024/01/06 05:57:36;;;;;;;;;;;;;;;3.46;100.00;94871.09;5119267;27;960;-63
2024/01/06 06:00:02;;;;;;;;;;;;;;;3.50;100.00;94875.19;5137504;27;973;-63
2024/01/06 06:02:28;;;;;;;;;;;;;;;3.56;100.00;94871.19;5137174;27;1913;-62
2024/01/06 06:04:55;;;;;;;;;;;;;;;3.49;100.00;94862.91;5137074;27;1107;-64
2024/01/06 06:07:21;;;;;;;;;;;;;;;3.47;100.00;94881.56;5136904;27;1048;-64
2024/01/06 06:09:47;;;;;;;;;;;;;;;3.32;100.00;94862.50;5137285;27;1107;-64
2024/01/06 06:12:13;;;;;;;;;;;;;;;3.28;100.00;94865.50;5137066;27;961;-64
2024/01/06 06:14:39;;;;;;;;;;;;;;;3.59;100.00;94855.94;5137225;27;971;-64
2024/01/06 06:17:06;;;;;;;;;;;;;;;3.40;100.00;94855.75;5136941;27;1059;-63
2024/01/06 06:19:32;;;;;;;;;;;;;;;3.25;100.00;94844.63;5137040;27;973;-62
2024/01/06 06:21:58;;;;;;;;;;;;;;;3.26;100.00;94852.44;5136834;27;979;-63
2024/01/06 06:24:24;;;;;;;;;;;;;;;3.48;100.00;94850.69;5136540;27;2252;-64
2024/01/06 06:26:50;;;;;;;;;;;;;;;3.43;100.00;94852.84;5136631;27;1289;-64
2024/01/06 06:29:16;;;;;;;;;;;;;;;3.32;100.00;94864.31;5136560;27;1086;-65
2024/01/06 06:31:44;;;;;;;;;;;;;;;3.47;100.00;94863.06;5136744;27;975;-65
2024/01/06 06:34:10;;;;;;;;;;;;;;;3.45;100.00;94854.41;5136706;27;1036;-65
2024/01/06 06:36:36;;;;;;;;;;;;;;;3.41;100.00;94862.72;5136419;27;1079;-66
2024/01/06 06:39:04;;;;;;;;;;;;;;;3.48;100.00;94858.59;5136668;27;1067;-66
2024/01/06 06:41:30;;;;;;;;;;;;;;;3.39;100.00;94856.72;5136594;27;1040;-66
2024/01/06 06:43:57;;;;;;;;;;;;;;;3.52;100.00;94867.97;5117895;27;1901;-66
2024/01/06 06:46:23;;;;;;;;;;;;;;;3.56;100.00;94856.16;5136555;27;1047;-65
2024/01/06 06:48:50;;;;;;;;;;;;;;;3.53;100.00;94856.44;5136341;27;1092;-65
2024/01/06 06:51:16;;;;;;;;;;;;;;;3.69;100.00;94870.06;5136419;27;1033;-65
2024/01/06 06:53:42;;;;;;;;;;;;;;;3.77;100.00;94871.22;5136127;27;1149;-65
2024/01/06 06:56:08;;;;;;;;;;;;;;;3.71;100.00;94873.41;5136024;27;1271;-66
2024/01/06 06:58:34;;;;;;;;;;;;;;;3.84;100.00;94872.41;5136068;27;966;-66
2024/01/06 07:01:00;;;;;;;;;;;;;;;3.89;100.00;94863.13;5135958;27;1281;-65
2024/01/06 07:03:26;;;;;;;;;;;;;;;4.00;100.00;94864.88;5136053;27;2237;-64
2024/01/06 07:05:52;;;;;;;;;;;;;;;4.15;100.00;94867.22;5135799;27;1028;-65
2024/01/06 07:08:18;;;;;;;;;;;;;;;4.31;100.00;94870.25;5135698;27;1039;-64
2024/01/06 07:10:44;;;;;;;;;;;;;;;4.24;100.00;94861.97;5135801;27;1048;-65
2024/01/06 07:13:10;;;;;;;;;;;;;;;4.18;100.00;94859.84;5135712;27;1126;-64
2024/01/06 07:15:36;;;;;;;;;;;;;;;4.24;100.00;94874.38;5117616;27;956;-66
2024/01/06 07:18:02;;;;;;;;;;;;;;;4.33;100.00;94872.78;5135934;27;992;-64
2024/01/06 07:20:28;;;;;;;;;;;;;;;4.41;100.00;94871.13;5135568;27;977;-64
2024/01/06 07:22:55;;;;;;;;;;;;;;;4.37;100.00;94860.94;5135816;27;1902;-65
2024/01/06 07:25:22;;;;;;;;;;;;;;;4.45;100.00;94871.72;5135739;27;990;-63
2024/01/06 07:27:48;;;;;;;;;;;;;;;4.49;100.00;94871.31;5135630;27;1059;-62
2024/01/06 07:30:14;;;;;;;;;;;;;;;4.49;100.00;94868.66;5135309;27;1044;-65
2024/01/06 07:32:40;;;;;;;;;;;;;;;4.64;100.00;94868.34;5135299;27;985;-66
2024/01/06 07:35:06;;;;;;;;;;;;;;;4.64;100.00;94866.50;5135358;27;1090;-65
2024/01/06 07:37:32;;;;;;;;;;;;;;;4.66;100.00;94869.03;5135215;27;1039;-62
2024/01/06 07:39:58;;;;;;;;;;;;;;;4.65;100.00;94870.84;5135574;27;1069;-62
2024/01/06 07:42:24;;;;;;;;;;;;;;;4.74;100.00;94873.66;5134920;27;1191;-63
2024/01/06 07:44:50;;;;;;;;;;;;;;;4.85;100.00;94861.16;5135117;27;1910;-62
2024/01/06 07:47:17;;;;;;;;;;;;;;;5.05;100.00;94867.41;5116901;27;967;-62
2024/01/06 07:49:43;;;;;;;;;;;;;;;5.23;100.00;94864.09;5134668;27;979;-62
2024/01/06 07:52:09;;;;;;;;;;;;;;;5.27;100.00;94863.69;5134921;27;1145;-62
2024/01/06 07:54:35;;;;;;;;;;;;;;;5.36;100.00;94874.47;5116756;27;1083;-64
2024/01/06 07:57:01;;;;;;;;;;;;;;;5.49;100.00;94864.44;5134770;27;1169;-64
2024/01/06 07:59:27;;;;;;;;;;;;;;;5.63;100.00;94869.34;5135151;27;978;-64
2024/01/06 08:01:53;;;;;;;;;;;;;;;5.77;100.00;94862.78;5134922;27;1054;-64
2024/01/06 08:04:19;;;;;;;;;;;;;;;5.74;100.00;94860.41;5134687;27;2007;-64
2024/01/06 08:06:45;;;;;;;;;;;;;;;5.75;100.00;94863.88;5135015;27;1040;-64
2024/01/06 08:09:11;;;;;;;;;;;;;;;5.83;100.00;94861.41;5134665;27;1040;-63
2024/01/06 08:11:37;;;;;;;;;;;;;;;6.05;100.00;94861.16;5116661;27;1087;-69
2024/01/06 08:14:03;;;;;;;;;;;;;;;6.33;99.17;94863.06;5135896;27;990;-68
2024/01/06 08:16:29;;;;;;;;;;;;;;;6.44;99.38;94849.63;5116484;27;1099;-64
2024/01/06 08:18:55;;;;;;;;;;;;;;;6.41;100.00;94844.59;5134631;27;1058;-65
2024/01/06 08:21:21;;;;;;;;;;;;;;;6.55;99.63;94856.63;5134423;27;977;-65
2024/01/06 08:23:47;;;;;;;;;;;;;;;6.72;99.20;94847.88;5134473;27;1909;-64
2024/01/06 08:26:13;;;;;;;;;;;;;;;6.83;98.03;94850.38;5134397;27;1050;-64
2024/01/06 08:28:39;;;;;;;;;;;;;;;7.11;98.11;94844.22;5134627;27;956;-65
2024/01/06 08:31:05;;;;;;;;;;;;;;;7.29;96.27;94846.94;5134471;27;1078;-65
2024/01/06 08:33:31;;;;;;;;;;;;;;;7.27;96.65;94844.44;5134624;27;964;-64
2024/01/06 08:35:57;;;;;;;;;;;;;;;7.00;98.70;94845.25;5134273;27;989;-65
2024/01/06 08:38:23;;;;;;;;;;;;;;;7.08;99.45;94848.03;5134304;27;1114;-65
2024/01/06 08:40:50;;;;;;;;;;;;;;;6.97;100.00;94845.56;5134443;27;973;-65
2024/01/06 08:43:16;;;;;;;;;;;;;;;6.84;100.00;94848.53;5134134;27;1914;-65
2024/01/06 08:45:42;;;;;;;;;;;;;;;6.85;100.00;94847.56;5134469;27;1056;-65
2024/01/06 08:48:08;;;;;;;;;;;;;;;6.88;100.00;94847.25;5134546;28;957;-65
2024/01/06 08:50:34;;;;;;;;;;;;;;;6.90;99.39;94839.97;5134355;28;1059;-65
2024/01/06 08:53:00;;;;;;;;;;;;;;;7.11;98.37;94842.41;5134037;28;1150;-66
2024/01/06 08:55:26;;;;;;;;;;;;;;;7.21;97.92;94837.88;5115852;28;1134;-67
2024/01/06 08:57:52;;;;;;;;;;;;;;;7.29;98.15;94844.28;5134274;28;979;-67
2024/01/06 09:00:18;;;;;;;;;;;;;;;7.33;98.80;94843.84;5137182;27;1038;-67
2024/01/06 09:02:44;;;;;;;;;;;;;;;7.11;98.04;94830.94;5138411;27;1906;-67
2024/01/06 09:05:10;;;;;;;;;;;;;;;6.91;99.29;94830.22;5138193;27;1111;-69
2024/01/06 09:07:36;;;;;;;;;;;;;;;6.95;97.54;94824.44;5138584;27;1036;-67
2024/01/06 09:10:02;;;;;;;;;;;;;;;6.93;99.91;94826.41;5138366;27;985;-66
2024/01/06 09:12:29;;;;;;;;;;;;;;;7.06;100.00;94818.09;5138087;27;1004;-65
2024/01/06 09:14:55;;;;;;;;;;;;;;;7.04;100.00;94820.06;5138133;27;1051;-65
2024/01/06 09:17:22;;;;;;;;;;;;;;;6.83;100.00;94812.34;5138042;27;1147;-67
2024/01/06 09:19:48;;;;;;;;;;;;;;;6.89;100.00;94822.38;5119750;27;917;-67
2024/01/06 09:22:14;;;;;;;;;;;;;;;7.03;100.00;94816.56;5119662;27;1042;-67
2024/01/06 09:24:40;;;;;;;;;;;;;;;6.93;100.00;94806.97;5137909;27;1982;-67
2024/01/06 09:27:06;;;;;;;;;;;;;;;6.94;100.00;94803.31;5138102;27;990;-67
2024/01/06 09:29:32;;;;;;;;;;;;;;;7.10;100.00;94808.84;5137700;27;1028;-67
2024/01/06 09:31:58;;;;;;;;;;;;;;;7.05;100.00;94797.81;5119456;27;1020;-66
2024/01/06 09:34:24;;;;;;;;;;;;;;;7.01;100.00;94794.59;5137590;27;1114;-66
2024/01/06 09:36:50;;;;;;;;;;;;;;;7.15;99.73;94790.63;5137955;27;1026;-67
2024/01/06 09:39:17;;;;;;;;;;;;;;;7.35;98.07;94786.00;5119346;27;1110;-67
2024/01/06 09:41:43;;;;;;;;;;;;;;;7.33;98.24;94776.50;5137829;27;965;-61
2024/01/06 09:44:09;;;;;;;;;;;;;;;7.43;96.45;94778.09;5137279;27;1971;-65
2024/01/06 09:46:37;;;;;;;;;;;;;;;7.38;97.87;94776.88;5119223;27;1103;-65
2024/01/06 09:49:03;;;;;;;;;;;;;;;7.39;97.85;94762.59;5137402;27;956;-65
2024/01/06 09:51:29;;;;;;;;;;;;;;;7.43;96.93;94763.97;5137561;27;1060;-65
2024/01/06 09:54:03;;;;;;;;;;;;;;;7.57;97.41;94763.47;5137447;27;1242;-66
2024/01/06 09:56:29;;;;;;;;;;;;;;;7.43;96.46;94759.47;5137230;27;977;-66
2024/01/06 09:58:55;;;;;;;;;;;;;;;7.50;96.69;94751.75;5137494;27;980;-66
2024/01/06 10:01:22;;;;;;;;;;;;;;;7.67;96.14;94746.59;5137137;27;1064;-65
2024/01/06 10:03:48;;;;;;;;;;;;;;;7.79;94.61;94740.84;5136965;27;1991;-66
2024/01/06 10:06:15;;;;;;;;;;;;;;;7.76;94.99;94735.03;5137201;27;981;-66
2024/01/06 10:08:44;;;;;;;;;;;;;;;7.66;96.64;94736.91;5137345;27;968;-65
2024/01/06 10:11:10;;;;;;;;;;;;;;;7.69;96.40;94740.09;5136189;27;949;-65
2024/01/06 10:13:39;;;;;;;;;;;;;;;7.62;96.91;94731.88;5118461;27;1033;-66
2024/01/06 10:16:06;;;;;;;;;;;;;;;7.73;95.83;94732.66;5136859;27;1183;-66
2024/01/06 10:18:32;;;;;;;;;;;;;;;7.84;95.50;94727.09;5136802;27;1016;-66
2024/01/06 10:20:58;;;;;;;;;;;;;;;7.78;94.74;94712.56;5136769;27;1032;-65
2024/01/06 10:23:26;;;;;;;;;;;;;;;7.81;95.41;94714.09;5136795;27;1914;-66
2024/01/06 10:25:55;;;;;;;;;;;;;;;7.90;95.84;94699.03;5136729;27;1064;-65
2024/01/06 10:28:22;;;;;;;;;;;;;;;7.74;96.10;94683.75;5118634;27;964;-65
2024/01/06 10:30:52;;;;;;;;;;;;;;;7.79;96.16;94684.94;5118350;27;1048;-66
2024/01/06 10:33:22;;;;;;;;;;;;;;;7.88;97.49;94679.72;5118848;27;932;-65
2024/01/06 10:35:49;;;;;;;;;;;;;;;8.26;96.37;94670.44;5136749;27;969;-66
2024/01/06 10:38:15;;;;;;;;;;;;;;;8.70;95.55;94681.00;5136537;27;1079;-65
2024/01/06 10:40:55;;;;;;;;;;;;;;;9.01;93.57;94667.09;5136525;27;1059;-66
2024/01/06 10:43:22;;;;;;;;;;;;;;;9.25;92.00;94668.13;5135984;27;1913;-66
2024/01/06 10:45:49;;;;;;;;;;;;;;;9.30;93.05;94669.31;5136334;27;1102;-67
2024/01/06 10:48:15;;;;;;;;;;;;;;;9.12;94.89;94668.59;5136182;27;1082;-66
2024/01/06 10:50:41;;;;;;;;;;;;;;;9.15;95.62;94663.78;5136254;27;1118;-66
2024/01/06 10:53:08;;;;;;;;;;;;;;;9.25;94.68;94657.47;5136225;27;1165;-66
2024/01/06 10:55:34;;;;;;;;;;;;;;;8.91;94.18;94661.06;5117863;27;1032;-63
2024/01/06 10:58:01;;;;;;;;;;;;;;;8.93;93.11;94648.41;5136168;27;1059;-65
2024/01/06 11:00:27;;;;;;;;;;;;;;;8.96;95.01;94634.75;5135734;27;1047;-65
2024/01/06 11:02:53;;;;;;;;;;;;;;;8.85;93.39;94619.88;5134952;27;1977;-65
2024/01/06 11:05:20;;;;;;;;;;;;;;;9.03;91.52;94621.59;5135982;27;1056;-64
2024/01/06 11:07:49;;;;;;;;;;;;;;;9.12;90.77;94625.94;5116875;27;1055;-65
2024/01/06 11:10:16;;;;;;;;;;;;;;;9.21;92.03;94608.94;5135818;27;1047;-65
2024/01/06 11:12:42;;;;;;;;;;;;;;;9.08;91.97;94593.41;5135712;27;1111;-65
2024/01/06 11:15:08;;;;;;;;;;;;;;;9.06;92.42;94584.75;5136013;27;1004;-65
2024/01/06 11:17:53;;;;;;;;;;;;;;;9.23;92.06;94579.44;5135945;27;991;-64
2024/01/06 11:20:21;;;;;;;;;;;;;;;9.12;89.68;94562.75;5135686;27;1035;-64
2024/01/06 11:22:47;;;;;;;;;;;;;;;9.24;91.14;94571.28;5134426;27;1910;-64
2024/01/06 11:25:15;;;;;;;;;;;;;;;9.36;90.18;94572.59;5135483;27;983;-64
2024/01/06 11:27:42;;;;;;;;;;;;;;;9.36;89.41;94566.44;5135805;27;977;-64
2024/01/06 11:30:08;;;;;;;;;;;;;;;9.19;90.27;94534.41;5135523;27;1019;-63
2024/01/06 11:32:39;;;;;;;;;;;;;;;9.07;91.66;94545.59;5135621;27;960;-64
2024/01/06 11:35:08;;;;;;;;;;;;;;;9.15;89.76;94549.09;5135263;27;1051;-62
2024/01/06 11:37:38;;;;;;;;;;;;;;;9.33;90.47;94551.59;5135423;27;985;-62
2024/01/06 11:40:24;;;;;;;;;;;;;;;9.32;89.81;94549.09;5135345;27;1020;-62
2024/01/06 11:42:58;;;;;;;;;;;;;;;9.29;87.11;94552.09;5134913;27;1976;-62
2024/01/06 11:45:24;;;;;;;;;;;;;;;9.64;87.33;94555.41;5135457;27;969;-62
2024/01/06 11:47:54;;;;;;;;;;;;;;;9.74;84.12;94535.50;5135339;27;1046;-62
2024/01/06 11:50:20;;;;;;;;;;;;;;;9.68;84.08;94528.19;5134983;27;1036;-62
2024/01/06 11:52:47;;;;;;;;;;;;;;;10.19;83.67;94521.66;5135264;27;1153;-62
2024/01/06 11:55:13;;;;;;;;;;;;;;;10.50;82.79;94521.69;5135329;27;979;-62
2024/01/06 11:57:38;;;;;;;;;;;;;;;10.81;82.52;94515.47;5135210;27;1044;-62
2024/01/06 12:00:05;;;;;;;;;;;;;;;10.96;82.10;94508.34;5135186;27;972;-61
2024/01/06 12:02:31;;;;;;;;;;;;;;;11.44;81.46;94505.41;5134413;27;1066;-62
2024/01/06 12:04:57;;;;;;;;;;;;;;;11.46;79.55;94482.84;5135036;27;1910;-62
2024/01/06 12:07:23;;;;;;;;;;;;;;;11.43;80.55;94488.53;5135163;27;1085;-63
2024/01/06 12:09:51;;;;;;;;;;;;;;;11.42;81.67;94476.19;5116751;27;972;-62
2024/01/06 12:12:18;;;;;;;;;;;;;;;11.68;80.29;94469.53;5134979;27;989;-61
2024/01/06 12:14:45;;;;;;;;;;;;;;;11.43;82.15;94461.78;5134661;27;1052;-61
2024/01/06 12:17:12;;;;;;;;;;;;;;;11.43;82.99;94461.78;5134565;27;1028;-62
2024/01/06 12:19:39;;;;;;;;;;;;;;;11.44;83.51;94458.09;5134612;27;1051;-61
2024/01/06 12:22:06;;;;;;;;;;;;;;;11.35;80.14;94448.47;5134800;27;1007;-61
2024/01/06 12:24:32;;;;;;;;;;;;;;;11.47;80.82;94447.00;5134500;27;1995;-61
2024/01/06 12:26:58;;;;;;;;;;;;;;;11.71;80.74;94455.78;5134642;27;987;-61
2024/01/06 12:29:28;;;;;;;;;;;;;;;11.76;80.77;94456.06;5134694;27;999;-61
2024/01/06 12:31:55;;;;;;;;;;;;;;;11.59;81.64;94457.25;5134387;27;1028;-61
2024/01/06 12:34:21;;;;;;;;;;;;;;;11.65;83.26;94451.19;5134197;27;1145;-62
2024/01/06 12:36:47;;;;;;;;;;;;;;;11.75;83.18;94445.53;5134540;27;991;-61
2024/01/06 12:39:14;;;;;;;;;;;;;;;11.86;82.70;94455.78;5134531;27;1064;-61
2024/01/06 12:41:43;;;;;;;;;;;;;;;11.61;83.23;94447.19;5134578;27;1113;-61
2024/01/06 12:44:09;;;;;;;;;;;;;;;11.54;82.75;94455.13;5133914;27;1913;-62
2024/01/06 12:46:36;;;;;;;;;;;;;;;11.63;82.76;94437.13;5134179;27;1151;-61
2024/01/06 12:49:02;;;;;;;;;;;;;;;11.61;83.67;94444.50;5134497;27;989;-62
2024/01/06 12:51:29;;;;;;;;;;;;;;;11.62;83.53;94440.84;5134394;28;929;-61
2024/01/06 12:53:55;;;;;;;;;;;;;;;11.65;84.16;94443.97;5134082;28;1256;-61
2024/01/06 12:56:21;;;;;;;;;;;;;;;11.59;85.37;94435.84;5134432;28;1123;-62
2024/01/06 12:58:47;;;;;;;;;;;;;;;11.57;85.89;94441.38;5134331;28;976;-64